New Castle Airport
KILG : now visible

Airfield :











YOU CAN JOIN US ON...

 
LOGIN :

Register | Disclaimer

   EN    FR    IT 

 









Legend :    VFR   Marginal VFR   IFR   Intensive IFR   Very Intensive IFR
Visi :
Ceiling :
>= 8 km
>= 3000ft
5 to 8 km
1000 to 3000 ft
1500m to 5 km
500 to 1000 ft
800 to 1500m
200 to 500 ft
< 800m
< 200 ft
Symbols :   Thunderstorms  Fog  Heavy snow  Heavy precipitations  Wind > 20 kt






- Airport Elevation : 80 ft
- IATA code : ILG


KILG - New Castle

CURRENT METAR :
  • 190851Z 19005KT 10SM FEW070 22/17 A2981 RMK AO2 SLP092 60000 T02170172 56021 $

EXPIRED METARs :
  • 190751Z 18004KT 10SM BKN065 22/18 A2982 RMK AO2 SLP097 T02170178 $
  • 190651Z 15004KT 10SM FEW085 SCT120 22/17 A2983 RMK AO2 RAB12E24 SLP100 P0000 T02170172 $
  • 190628Z 12005KT 10SM BKN080 BKN110 22/17 A2984 RMK AO2 LTG DSNT NE AND E RAB12E24 P0000 T02170167 $

TAF KILG
Valid from the 19 at 06:00 until the 20 at 06:00 UTC


190559Z 1906/2006 19008KT P6SM VCTS FEW070CB BKN250 WS020/22040KT
FM190800 22006KT P6SM BKN035
FM191400 27008KT P6SM BKN060
FM192100 24008KT P6SM BKN070
KZDC FIR / North America



MET'MAP, your aeronautical weather chart ! - Copyright ORBIFLY December 2007 - Disclaimer

ORBIFLY MET'MAP TEAM :

Programming & Development : Alexandra Zaïnal
Concept & original design : Baudouin d'Aumeries
Assistance for programming : Marc-Olivier Méhu
Technical & hardware support : Manuel Goepfert

Contact : metmap@orbifly.com




SOURCES & CREDITS :

   NOAA       Earth
Advisory